sensor_id;sensor_type;location;lat;lon;timestamp;P1;durP1;ratioP1;P2;durP2;ratioP2
66429;SDS011;53242;51.694;10.006;2024-02-04T00:00:11;17.85;;;6.50;;
66429;SDS011;53242;51.694;10.006;2024-02-04T00:02:35;18.15;;;6.65;;
66429;SDS011;53242;51.694;10.006;2024-02-04T00:04:57;24.52;;;7.97;;
66429;SDS011;53242;51.694;10.006;2024-02-04T00:07:20;22.90;;;7.25;;
66429;SDS011;53242;51.694;10.006;2024-02-04T00:09:42;22.23;;;8.00;;
66429;SDS011;53242;51.694;10.006;2024-02-04T00:12:06;22.52;;;8.20;;
66429;SDS011;53242;51.694;10.006;2024-02-04T00:14:28;21.98;;;7.55;;
66429;SDS011;53242;51.694;10.006;2024-02-04T00:16:50;19.67;;;6.82;;
66429;SDS011;53242;51.694;10.006;2024-02-04T00:19:13;22.05;;;7.68;;
66429;SDS011;53242;51.694;10.006;2024-02-04T00:21:35;23.80;;;7.30;;
66429;SDS011;53242;51.694;10.006;2024-02-04T00:23:58;21.50;;;7.13;;
66429;SDS011;53242;51.694;10.006;2024-02-04T00:26:21;18.90;;;6.93;;
66429;SDS011;53242;51.694;10.006;2024-02-04T00:28:43;23.27;;;7.45;;
66429;SDS011;53242;51.694;10.006;2024-02-04T00:31:06;20.08;;;7.18;;
66429;SDS011;53242;51.694;10.006;2024-02-04T00:33:28;22.48;;;7.88;;
66429;SDS011;53242;51.694;10.006;2024-02-04T00:35:51;21.20;;;7.57;;
66429;SDS011;53242;51.694;10.006;2024-02-04T00:38:13;19.75;;;7.60;;
66429;SDS011;53242;51.694;10.006;2024-02-04T00:40:36;20.42;;;7.07;;
66429;SDS011;53242;51.694;10.006;2024-02-04T00:42:58;24.92;;;7.47;;
66429;SDS011;53242;51.694;10.006;2024-02-04T00:45:21;21.02;;;7.45;;
66429;SDS011;53242;51.694;10.006;2024-02-04T00:47:43;19.95;;;7.25;;
66429;SDS011;53242;51.694;10.006;2024-02-04T00:50:06;22.63;;;7.80;;
66429;SDS011;53242;51.694;10.006;2024-02-04T00:52:28;21.30;;;7.32;;
66429;SDS011;53242;51.694;10.006;2024-02-04T00:54:51;22.02;;;7.32;;
66429;SDS011;53242;51.694;10.006;2024-02-04T00:57:13;18.92;;;6.00;;
66429;SDS011;53242;51.694;10.006;2024-02-04T00:59:36;16.10;;;6.05;;
66429;SDS011;53242;51.694;10.006;2024-02-04T01:01:58;14.27;;;4.85;;
66429;SDS011;53242;51.694;10.006;2024-02-04T01:04:21;14.95;;;4.95;;
66429;SDS011;53242;51.694;10.006;2024-02-04T01:06:45;16.92;;;5.60;;
66429;SDS011;53242;51.694;10.006;2024-02-04T01:09:07;14.48;;;5.60;;
66429;SDS011;53242;51.694;10.006;2024-02-04T01:11:29;9.80;;;3.60;;
66429;SDS011;53242;51.694;10.006;2024-02-04T01:13:52;12.18;;;4.35;;
66429;SDS011;53242;51.694;10.006;2024-02-04T01:16:14;13.05;;;4.45;;
66429;SDS011;53242;51.694;10.006;2024-02-04T01:18:37;14.93;;;4.85;;
66429;SDS011;53242;51.694;10.006;2024-02-04T01:20:59;9.98;;;3.83;;
66429;SDS011;53242;51.694;10.006;2024-02-04T01:23:23;10.45;;;3.65;;
66429;SDS011;53242;51.694;10.006;2024-02-04T01:25:45;9.25;;;3.58;;
66429;SDS011;53242;51.694;10.006;2024-02-04T01:28:08;8.70;;;3.30;;
66429;SDS011;53242;51.694;10.006;2024-02-04T01:30:30;8.93;;;3.53;;
66429;SDS011;53242;51.694;10.006;2024-02-04T01:32:53;10.73;;;4.13;;
66429;SDS011;53242;51.694;10.006;2024-02-04T01:35:15;10.95;;;3.67;;
66429;SDS011;53242;51.694;10.006;2024-02-04T01:37:38;8.98;;;3.22;;
66429;SDS011;53242;51.694;10.006;2024-02-04T01:40:00;10.43;;;3.72;;
66429;SDS011;53242;51.694;10.006;2024-02-04T01:42:23;10.00;;;3.83;;
66429;SDS011;53242;51.694;10.006;2024-02-04T01:44:45;12.60;;;4.38;;
66429;SDS011;53242;51.694;10.006;2024-02-04T01:47:08;13.00;;;4.35;;
66429;SDS011;53242;51.694;10.006;2024-02-04T01:49:31;13.73;;;4.63;;
66429;SDS011;53242;51.694;10.006;2024-02-04T01:51:53;12.40;;;4.93;;
66429;SDS011;53242;51.694;10.006;2024-02-04T01:54:16;15.38;;;5.03;;
66429;SDS011;53242;51.694;10.006;2024-02-04T01:56:38;13.00;;;4.55;;
66429;SDS011;53242;51.694;10.006;2024-02-04T01:59:01;17.40;;;5.13;;
66429;SDS011;53242;51.694;10.006;2024-02-04T02:01:24;12.45;;;4.35;;
66429;SDS011;53242;51.694;10.006;2024-02-04T02:03:46;13.85;;;4.63;;
66429;SDS011;53242;51.694;10.006;2024-02-04T02:06:12;13.38;;;5.13;;
66429;SDS011;53242;51.694;10.006;2024-02-04T02:08:35;10.18;;;3.67;;
66429;SDS011;53242;51.694;10.006;2024-02-04T02:11:10;11.77;;;3.90;;
66429;SDS011;53242;51.694;10.006;2024-02-04T02:13:35;11.48;;;3.53;;
66429;SDS011;53242;51.694;10.006;2024-02-04T02:16:02;10.77;;;3.55;;
66429;SDS011;53242;51.694;10.006;2024-02-04T02:18:53;9.05;;;2.95;;
66429;SDS011;53242;51.694;10.006;2024-02-04T02:21:36;10.10;;;3.28;;
66429;SDS011;53242;51.694;10.006;2024-02-04T02:26:53;9.05;;;2.97;;
66429;SDS011;53242;51.694;10.006;2024-02-04T02:29:16;13.18;;;3.80;;
66429;SDS011;53242;51.694;10.006;2024-02-04T02:31:39;11.10;;;3.78;;
66429;SDS011;53242;51.694;10.006;2024-02-04T02:34:03;10.30;;;3.65;;
66429;SDS011;53242;51.694;10.006;2024-02-04T02:36:26;10.07;;;3.53;;
66429;SDS011;53242;51.694;10.006;2024-02-04T02:38:52;10.07;;;3.45;;
66429;SDS011;53242;51.694;10.006;2024-02-04T02:41:23;9.90;;;3.42;;
66429;SDS011;53242;51.694;10.006;2024-02-04T02:43:46;10.80;;;3.22;;
66429;SDS011;53242;51.694;10.006;2024-02-04T02:46:11;11.23;;;3.50;;
66429;SDS011;53242;51.694;10.006;2024-02-04T02:48:34;13.10;;;3.38;;
66429;SDS011;53242;51.694;10.006;2024-02-04T02:50:57;10.75;;;3.47;;
66429;SDS011;53242;51.694;10.006;2024-02-04T02:53:20;12.15;;;3.80;;
66429;SDS011;53242;51.694;10.006;2024-02-04T02:55:43;9.23;;;3.22;;
66429;SDS011;53242;51.694;10.006;2024-02-04T02:58:06;10.40;;;3.53;;
66429;SDS011;53242;51.694;10.006;2024-02-04T03:00:28;10.48;;;3.90;;
66429;SDS011;53242;51.694;10.006;2024-02-04T03:02:50;10.45;;;3.83;;
66429;SDS011;53242;51.694;10.006;2024-02-04T03:05:14;14.48;;;4.15;;
66429;SDS011;53242;51.694;10.006;2024-02-04T03:07:38;11.60;;;3.42;;
66429;SDS011;53242;51.694;10.006;2024-02-04T03:10:00;11.77;;;3.85;;
66429;SDS011;53242;51.694;10.006;2024-02-04T03:12:22;10.65;;;4.00;;
66429;SDS011;53242;51.694;10.006;2024-02-04T03:14:46;11.82;;;3.88;;
66429;SDS011;53242;51.694;10.006;2024-02-04T03:17:09;10.63;;;3.28;;
66429;SDS011;53242;51.694;10.006;2024-02-04T03:19:31;10.02;;;3.28;;
66429;SDS011;53242;51.694;10.006;2024-02-04T03:21:54;9.73;;;3.35;;
66429;SDS011;53242;51.694;10.006;2024-02-04T03:24:16;9.85;;;3.17;;
66429;SDS011;53242;51.694;10.006;2024-02-04T03:26:39;13.13;;;3.88;;
66429;SDS011;53242;51.694;10.006;2024-02-04T03:29:01;10.40;;;3.72;;
66429;SDS011;53242;51.694;10.006;2024-02-04T03:31:26;10.73;;;3.67;;
66429;SDS011;53242;51.694;10.006;2024-02-04T03:33:49;12.63;;;4.43;;
66429;SDS011;53242;51.694;10.006;2024-02-04T03:36:15;11.65;;;4.22;;
66429;SDS011;53242;51.694;10.006;2024-02-04T03:38:45;13.10;;;4.35;;
66429;SDS011;53242;51.694;10.006;2024-02-04T03:41:07;13.15;;;4.25;;
66429;SDS011;53242;51.694;10.006;2024-02-04T03:43:30;12.43;;;4.38;;
66429;SDS011;53242;51.694;10.006;2024-02-04T03:45:52;12.90;;;4.15;;
66429;SDS011;53242;51.694;10.006;2024-02-04T03:48:14;12.55;;;4.38;;
66429;SDS011;53242;51.694;10.006;2024-02-04T03:50:37;12.48;;;4.07;;
66429;SDS011;53242;51.694;10.006;2024-02-04T03:53:00;12.13;;;4.35;;
66429;SDS011;53242;51.694;10.006;2024-02-04T03:55:22;12.00;;;4.00;;
66429;SDS011;53242;51.694;10.006;2024-02-04T03:57:45;13.27;;;4.88;;
66429;SDS011;53242;51.694;10.006;2024-02-04T04:00:08;12.13;;;4.22;;
66429;SDS011;53242;51.694;10.006;2024-02-04T04:02:33;12.57;;;4.60;;
66429;SDS011;53242;51.694;10.006;2024-02-04T04:04:56;12.93;;;4.13;;
66429;SDS011;53242;51.694;10.006;2024-02-04T04:07:18;11.75;;;4.18;;
66429;SDS011;53242;51.694;10.006;2024-02-04T04:09:41;11.68;;;4.10;;
66429;SDS011;53242;51.694;10.006;2024-02-04T04:12:03;13.77;;;4.28;;
66429;SDS011;53242;51.694;10.006;2024-02-04T04:14:26;11.45;;;4.18;;
66429;SDS011;53242;51.694;10.006;2024-02-04T04:16:48;13.05;;;4.40;;
66429;SDS011;53242;51.694;10.006;2024-02-04T04:19:11;14.13;;;5.00;;
66429;SDS011;53242;51.694;10.006;2024-02-04T04:21:33;8.50;;;3.55;;
66429;SDS011;53242;51.694;10.006;2024-02-04T04:23:55;11.30;;;3.70;;
66429;SDS011;53242;51.694;10.006;2024-02-04T04:26:18;12.13;;;3.80;;
66429;SDS011;53242;51.694;10.006;2024-02-04T04:28:40;10.20;;;3.65;;
66429;SDS011;53242;51.694;10.006;2024-02-04T04:31:02;10.40;;;3.92;;
66429;SDS011;53242;51.694;10.006;2024-02-04T04:33:25;9.10;;;3.05;;
66429;SDS011;53242;51.694;10.006;2024-02-04T04:35:47;8.98;;;3.13;;
66429;SDS011;53242;51.694;10.006;2024-02-04T04:38:10;9.45;;;3.03;;
66429;SDS011;53242;51.694;10.006;2024-02-04T04:40:32;8.77;;;3.03;;
66429;SDS011;53242;51.694;10.006;2024-02-04T04:42:54;6.80;;;2.63;;
66429;SDS011;53242;51.694;10.006;2024-02-04T04:45:17;6.72;;;2.78;;
66429;SDS011;53242;51.694;10.006;2024-02-04T04:47:39;4.50;;;1.77;;
66429;SDS011;53242;51.694;10.006;2024-02-04T04:50:02;4.15;;;1.73;;
66429;SDS011;53242;51.694;10.006;2024-02-04T04:52:25;4.45;;;1.80;;
66429;SDS011;53242;51.694;10.006;2024-02-04T04:54:47;4.28;;;1.65;;
66429;SDS011;53242;51.694;10.006;2024-02-04T04:57:09;3.63;;;1.40;;
66429;SDS011;53242;51.694;10.006;2024-02-04T04:59:32;2.63;;;1.10;;
66429;SDS011;53242;51.694;10.006;2024-02-04T05:01:55;3.17;;;1.40;;
66429;SDS011;53242;51.694;10.006;2024-02-04T05:04:17;3.42;;;1.60;;
66429;SDS011;53242;51.694;10.006;2024-02-04T05:06:47;3.63;;;1.50;;
66429;SDS011;53242;51.694;10.006;2024-02-04T05:09:09;2.97;;;1.65;;
66429;SDS011;53242;51.694;10.006;2024-02-04T05:11:31;3.90;;;1.50;;
66429;SDS011;53242;51.694;10.006;2024-02-04T05:13:54;3.38;;;1.38;;
66429;SDS011;53242;51.694;10.006;2024-02-04T05:16:16;3.53;;;1.73;;
66429;SDS011;53242;51.694;10.006;2024-02-04T05:18:39;2.17;;;1.20;;
66429;SDS011;53242;51.694;10.006;2024-02-04T05:21:02;7.30;;;2.40;;
66429;SDS011;53242;51.694;10.006;2024-02-04T05:23:25;6.28;;;1.70;;
66429;SDS011;53242;51.694;10.006;2024-02-04T05:25:47;1.83;;;1.10;;
66429;SDS011;53242;51.694;10.006;2024-02-04T05:28:10;2.28;;;0.80;;
66429;SDS011;53242;51.694;10.006;2024-02-04T05:30:32;1.77;;;0.90;;
66429;SDS011;53242;51.694;10.006;2024-02-04T05:32:54;3.25;;;0.98;;
66429;SDS011;53242;51.694;10.006;2024-02-04T05:35:17;3.13;;;0.93;;
66429;SDS011;53242;51.694;10.006;2024-02-04T05:37:40;1.23;;;0.70;;
66429;SDS011;53242;51.694;10.006;2024-02-04T05:40:02;3.05;;;1.30;;
66429;SDS011;53242;51.694;10.006;2024-02-04T05:42:26;1.42;;;1.15;;
66429;SDS011;53242;51.694;10.006;2024-02-04T05:44:49;1.63;;;0.70;;
66429;SDS011;53242;51.694;10.006;2024-02-04T05:47:11;2.28;;;1.10;;
66429;SDS011;53242;51.694;10.006;2024-02-04T05:49:33;3.50;;;1.10;;
66429;SDS011;53242;51.694;10.006;2024-02-04T05:51:56;5.40;;;0.88;;
66429;SDS011;53242;51.694;10.006;2024-02-04T05:54:18;1.70;;;0.98;;
66429;SDS011;53242;51.694;10.006;2024-02-04T05:56:41;3.03;;;1.10;;
66429;SDS011;53242;51.694;10.006;2024-02-04T05:59:03;3.33;;;1.13;;
66429;SDS011;53242;51.694;10.006;2024-02-04T06:01:25;2.92;;;1.00;;
66429;SDS011;53242;51.694;10.006;2024-02-04T06:03:48;2.75;;;1.10;;
66429;SDS011;53242;51.694;10.006;2024-02-04T06:06:14;2.10;;;1.05;;
66429;SDS011;53242;51.694;10.006;2024-02-04T06:11:04;1.25;;;0.77;;
66429;SDS011;53242;51.694;10.006;2024-02-04T06:13:27;3.70;;;1.15;;
66429;SDS011;53242;51.694;10.006;2024-02-04T06:15:49;1.75;;;0.90;;
66429;SDS011;53242;51.694;10.006;2024-02-04T06:18:12;3.25;;;1.50;;
66429;SDS011;53242;51.694;10.006;2024-02-04T06:20:34;3.45;;;1.40;;
66429;SDS011;53242;51.694;10.006;2024-02-04T06:22:56;4.43;;;1.40;;
66429;SDS011;53242;51.694;10.006;2024-02-04T06:25:22;5.47;;;1.80;;
66429;SDS011;53242;51.694;10.006;2024-02-04T06:27:45;5.68;;;1.83;;
66429;SDS011;53242;51.694;10.006;2024-02-04T06:30:08;3.50;;;1.50;;
66429;SDS011;53242;51.694;10.006;2024-02-04T06:32:30;4.45;;;1.55;;
66429;SDS011;53242;51.694;10.006;2024-02-04T06:34:52;3.92;;;1.40;;
66429;SDS011;53242;51.694;10.006;2024-02-04T06:37:17;5.00;;;1.80;;
66429;SDS011;53242;51.694;10.006;2024-02-04T06:39:39;4.47;;;1.65;;
66429;SDS011;53242;51.694;10.006;2024-02-04T06:42:02;4.22;;;1.90;;
66429;SDS011;53242;51.694;10.006;2024-02-04T06:44:24;4.55;;;1.40;;
66429;SDS011;53242;51.694;10.006;2024-02-04T06:46:47;4.10;;;1.58;;
66429;SDS011;53242;51.694;10.006;2024-02-04T06:49:10;3.97;;;1.73;;
66429;SDS011;53242;51.694;10.006;2024-02-04T06:51:32;3.65;;;1.48;;
66429;SDS011;53242;51.694;10.006;2024-02-04T06:53:54;2.38;;;1.30;;
66429;SDS011;53242;51.694;10.006;2024-02-04T06:56:17;3.33;;;1.45;;
66429;SDS011;53242;51.694;10.006;2024-02-04T06:58:39;8.40;;;1.90;;
66429;SDS011;53242;51.694;10.006;2024-02-04T07:01:02;4.45;;;1.75;;
66429;SDS011;53242;51.694;10.006;2024-02-04T07:03:25;3.65;;;1.33;;
66429;SDS011;53242;51.694;10.006;2024-02-04T07:05:47;5.35;;;1.95;;
66429;SDS011;53242;51.694;10.006;2024-02-04T07:08:10;7.78;;;2.15;;
66429;SDS011;53242;51.694;10.006;2024-02-04T07:10:32;4.80;;;1.85;;
66429;SDS011;53242;51.694;10.006;2024-02-04T07:12:55;6.70;;;2.17;;
66429;SDS011;53242;51.694;10.006;2024-02-04T07:15:17;2.38;;;1.20;;
66429;SDS011;53242;51.694;10.006;2024-02-04T07:17:39;7.22;;;1.70;;
66429;SDS011;53242;51.694;10.006;2024-02-04T07:20:02;6.18;;;1.90;;
66429;SDS011;53242;51.694;10.006;2024-02-04T07:22:24;6.10;;;2.00;;
66429;SDS011;53242;51.694;10.006;2024-02-04T07:24:47;4.90;;;1.83;;
66429;SDS011;53242;51.694;10.006;2024-02-04T07:27:09;2.83;;;1.42;;
66429;SDS011;53242;51.694;10.006;2024-02-04T07:29:32;4.18;;;1.70;;
66429;SDS011;53242;51.694;10.006;2024-02-04T07:31:54;6.68;;;1.63;;
66429;SDS011;53242;51.694;10.006;2024-02-04T07:34:16;6.32;;;1.98;;
66429;SDS011;53242;51.694;10.006;2024-02-04T07:36:39;3.22;;;1.48;;
66429;SDS011;53242;51.694;10.006;2024-02-04T07:39:02;4.45;;;1.35;;
66429;SDS011;53242;51.694;10.006;2024-02-04T07:41:26;2.08;;;1.20;;
66429;SDS011;53242;51.694;10.006;2024-02-04T07:43:49;2.30;;;1.30;;
66429;SDS011;53242;51.694;10.006;2024-02-04T07:46:11;3.10;;;1.20;;
66429;SDS011;53242;51.694;10.006;2024-02-04T07:48:33;4.90;;;1.38;;
66429;SDS011;53242;51.694;10.006;2024-02-04T07:50:56;4.28;;;1.50;;
66429;SDS011;53242;51.694;10.006;2024-02-04T07:53:19;2.38;;;0.80;;
66429;SDS011;53242;51.694;10.006;2024-02-04T07:55:41;3.13;;;1.40;;
66429;SDS011;53242;51.694;10.006;2024-02-04T07:58:03;6.05;;;1.63;;
66429;SDS011;53242;51.694;10.006;2024-02-04T08:00:26;3.83;;;1.23;;
66429;SDS011;53242;51.694;10.006;2024-02-04T08:02:48;2.25;;;1.00;;
66429;SDS011;53242;51.694;10.006;2024-02-04T08:05:11;6.05;;;2.13;;
66429;SDS011;53242;51.694;10.006;2024-02-04T08:07:33;2.78;;;1.30;;
66429;SDS011;53242;51.694;10.006;2024-02-04T08:09:56;2.50;;;1.13;;
66429;SDS011;53242;51.694;10.006;2024-02-04T08:12:18;4.05;;;1.23;;
66429;SDS011;53242;51.694;10.006;2024-02-04T08:14:41;2.88;;;1.40;;
66429;SDS011;53242;51.694;10.006;2024-02-04T08:17:03;4.30;;;1.30;;
66429;SDS011;53242;51.694;10.006;2024-02-04T08:19:25;3.45;;;1.45;;
66429;SDS011;53242;51.694;10.006;2024-02-04T08:21:48;4.38;;;1.73;;
66429;SDS011;53242;51.694;10.006;2024-02-04T08:24:10;4.28;;;1.67;;
66429;SDS011;53242;51.694;10.006;2024-02-04T08:26:33;6.38;;;2.15;;
66429;SDS011;53242;51.694;10.006;2024-02-04T08:28:55;5.68;;;1.52;;
66429;SDS011;53242;51.694;10.006;2024-02-04T08:31:18;6.18;;;2.22;;
66429;SDS011;53242;51.694;10.006;2024-02-04T08:33:40;6.55;;;2.10;;
66429;SDS011;53242;51.694;10.006;2024-02-04T08:36:02;10.52;;;2.92;;
66429;SDS011;53242;51.694;10.006;2024-02-04T08:38:25;5.55;;;1.90;;
66429;SDS011;53242;51.694;10.006;2024-02-04T08:40:47;7.70;;;2.92;;
66429;SDS011;53242;51.694;10.006;2024-02-04T08:43:10;8.10;;;3.28;;
66429;SDS011;53242;51.694;10.006;2024-02-04T08:45:32;8.98;;;3.40;;
66429;SDS011;53242;51.694;10.006;2024-02-04T08:47:55;8.93;;;3.17;;
66429;SDS011;53242;51.694;10.006;2024-02-04T08:50:17;8.88;;;2.88;;
66429;SDS011;53242;51.694;10.006;2024-02-04T08:52:40;10.73;;;4.20;;
66429;SDS011;53242;51.694;10.006;2024-02-04T08:55:02;8.98;;;3.28;;
66429;SDS011;53242;51.694;10.006;2024-02-04T08:57:26;11.45;;;4.13;;
66429;SDS011;53242;51.694;10.006;2024-02-04T08:59:48;12.32;;;4.15;;
66429;SDS011;53242;51.694;10.006;2024-02-04T09:02:11;11.50;;;4.32;;
66429;SDS011;53242;51.694;10.006;2024-02-04T09:04:33;12.50;;;4.57;;
66429;SDS011;53242;51.694;10.006;2024-02-04T09:07:02;13.18;;;4.10;;
66429;SDS011;53242;51.694;10.006;2024-02-04T09:09:24;14.68;;;5.25;;
66429;SDS011;53242;51.694;10.006;2024-02-04T09:11:47;17.77;;;5.63;;
66429;SDS011;53242;51.694;10.006;2024-02-04T09:14:09;14.43;;;5.50;;
66429;SDS011;53242;51.694;10.006;2024-02-04T09:16:31;16.92;;;5.72;;
66429;SDS011;53242;51.694;10.006;2024-02-04T09:18:54;14.93;;;5.65;;
66429;SDS011;53242;51.694;10.006;2024-02-04T09:21:16;18.88;;;6.43;;
66429;SDS011;53242;51.694;10.006;2024-02-04T09:23:39;17.52;;;6.05;;
66429;SDS011;53242;51.694;10.006;2024-02-04T09:26:01;15.90;;;5.75;;
66429;SDS011;53242;51.694;10.006;2024-02-04T09:28:23;16.08;;;6.03;;
66429;SDS011;53242;51.694;10.006;2024-02-04T09:30:46;19.92;;;6.53;;
66429;SDS011;53242;51.694;10.006;2024-02-04T09:33:08;19.52;;;6.25;;
66429;SDS011;53242;51.694;10.006;2024-02-04T09:35:31;16.98;;;5.93;;
66429;SDS011;53242;51.694;10.006;2024-02-04T09:37:53;12.48;;;4.78;;
66429;SDS011;53242;51.694;10.006;2024-02-04T09:40:16;13.27;;;5.53;;
66429;SDS011;53242;51.694;10.006;2024-02-04T09:42:39;14.25;;;5.22;;
66429;SDS011;53242;51.694;10.006;2024-02-04T09:45:02;10.40;;;4.15;;
66429;SDS011;53242;51.694;10.006;2024-02-04T09:47:24;6.03;;;2.33;;
66429;SDS011;53242;51.694;10.006;2024-02-04T09:49:48;6.40;;;2.17;;
66429;SDS011;53242;51.694;10.006;2024-02-04T09:52:11;8.80;;;3.00;;
66429;SDS011;53242;51.694;10.006;2024-02-04T09:54:43;4.25;;;1.65;;
66429;SDS011;53242;51.694;10.006;2024-02-04T09:57:07;5.35;;;2.50;;
66429;SDS011;53242;51.694;10.006;2024-02-04T09:59:30;5.28;;;2.30;;
66429;SDS011;53242;51.694;10.006;2024-02-04T10:01:53;6.00;;;1.90;;
66429;SDS011;53242;51.694;10.006;2024-02-04T10:04:17;5.43;;;1.60;;
66429;SDS011;53242;51.694;10.006;2024-02-04T10:06:40;4.82;;;1.88;;
66429;SDS011;53242;51.694;10.006;2024-02-04T10:09:02;4.07;;;1.38;;
66429;SDS011;53242;51.694;10.006;2024-02-04T10:11:25;5.82;;;1.60;;
66429;SDS011;53242;51.694;10.006;2024-02-04T10:13:48;2.97;;;1.67;;
66429;SDS011;53242;51.694;10.006;2024-02-04T10:16:12;4.97;;;1.65;;
66429;SDS011;53242;51.694;10.006;2024-02-04T10:18:34;6.28;;;1.90;;
66429;SDS011;53242;51.694;10.006;2024-02-04T10:20:57;6.90;;;2.00;;
66429;SDS011;53242;51.694;10.006;2024-02-04T10:23:19;3.28;;;1.55;;
66429;SDS011;53242;51.694;10.006;2024-02-04T10:25:42;4.35;;;1.42;;
66429;SDS011;53242;51.694;10.006;2024-02-04T10:28:04;4.85;;;1.90;;
66429;SDS011;53242;51.694;10.006;2024-02-04T10:30:27;4.28;;;1.67;;
66429;SDS011;53242;51.694;10.006;2024-02-04T10:32:53;4.97;;;1.73;;
66429;SDS011;53242;51.694;10.006;2024-02-04T10:35:16;5.50;;;2.00;;
66429;SDS011;53242;51.694;10.006;2024-02-04T10:37:41;2.78;;;1.30;;
66429;SDS011;53242;51.694;10.006;2024-02-04T10:40:03;5.28;;;2.10;;
66429;SDS011;53242;51.694;10.006;2024-02-04T10:42:26;4.47;;;1.67;;
66429;SDS011;53242;51.694;10.006;2024-02-04T10:44:49;3.65;;;1.73;;
66429;SDS011;53242;51.694;10.006;2024-02-04T10:49:40;2.28;;;1.00;;
66429;SDS011;53242;51.694;10.006;2024-02-04T10:52:08;4.88;;;1.38;;
66429;SDS011;53242;51.694;10.006;2024-02-04T10:54:32;5.22;;;1.50;;
66429;SDS011;53242;51.694;10.006;2024-02-04T10:56:58;5.18;;;1.08;;
66429;SDS011;53242;51.694;10.006;2024-02-04T10:59:27;3.22;;;1.17;;
66429;SDS011;53242;51.694;10.006;2024-02-04T11:01:52;3.92;;;1.33;;
66429;SDS011;53242;51.694;10.006;2024-02-04T11:04:14;2.13;;;0.90;;
66429;SDS011;53242;51.694;10.006;2024-02-04T11:09:03;1.83;;;1.08;;
66429;SDS011;53242;51.694;10.006;2024-02-04T11:11:27;2.50;;;1.42;;
66429;SDS011;53242;51.694;10.006;2024-02-04T11:13:50;5.07;;;1.52;;
66429;SDS011;53242;51.694;10.006;2024-02-04T11:16:31;2.08;;;1.10;;
66429;SDS011;53242;51.694;10.006;2024-02-04T11:24:42;3.03;;;1.13;;
66429;SDS011;53242;51.694;10.006;2024-02-04T11:27:25;3.65;;;1.50;;
66429;SDS011;53242;51.694;10.006;2024-02-04T11:29:48;3.53;;;1.48;;
66429;SDS011;53242;51.694;10.006;2024-02-04T11:32:11;4.78;;;1.13;;
66429;SDS011;53242;51.694;10.006;2024-02-04T11:34:34;4.93;;;1.60;;
66429;SDS011;53242;51.694;10.006;2024-02-04T11:36:56;3.78;;;1.50;;
66429;SDS011;53242;51.694;10.006;2024-02-04T11:39:21;2.42;;;1.27;;
66429;SDS011;53242;51.694;10.006;2024-02-04T11:41:45;3.97;;;1.58;;
66429;SDS011;53242;51.694;10.006;2024-02-04T11:44:10;7.10;;;1.65;;
66429;SDS011;53242;51.694;10.006;2024-02-04T11:46:33;5.65;;;2.55;;
66429;SDS011;53242;51.694;10.006;2024-02-04T11:48:56;4.05;;;1.52;;
66429;SDS011;53242;51.694;10.006;2024-02-04T11:51:22;2.80;;;1.40;;
66429;SDS011;53242;51.694;10.006;2024-02-04T11:53:46;4.78;;;1.83;;
66429;SDS011;53242;51.694;10.006;2024-02-04T11:56:08;3.47;;;1.73;;
66429;SDS011;53242;51.694;10.006;2024-02-04T11:58:31;5.55;;;2.40;;
66429;SDS011;53242;51.694;10.006;2024-02-04T12:00:54;6.45;;;2.58;;
66429;SDS011;53242;51.694;10.006;2024-02-04T12:03:28;5.88;;;1.77;;
66429;SDS011;53242;51.694;10.006;2024-02-04T12:05:51;4.38;;;1.90;;
66429;SDS011;53242;51.694;10.006;2024-02-04T12:08:13;5.13;;;2.40;;
66429;SDS011;53242;51.694;10.006;2024-02-04T12:10:36;6.15;;;2.10;;
66429;SDS011;53242;51.694;10.006;2024-02-04T12:13:00;5.05;;;2.25;;
66429;SDS011;53242;51.694;10.006;2024-02-04T12:15:25;4.90;;;1.67;;
66429;SDS011;53242;51.694;10.006;2024-02-04T12:17:47;6.57;;;1.90;;
66429;SDS011;53242;51.694;10.006;2024-02-04T12:20:10;2.20;;;1.35;;
66429;SDS011;53242;51.694;10.006;2024-02-04T12:22:32;2.03;;;1.25;;
66429;SDS011;53242;51.694;10.006;2024-02-04T12:24:55;3.42;;;1.48;;
66429;SDS011;53242;51.694;10.006;2024-02-04T12:27:18;5.97;;;1.90;;
66429;SDS011;53242;51.694;10.006;2024-02-04T12:29:40;3.53;;;1.42;;
66429;SDS011;53242;51.694;10.006;2024-02-04T12:32:03;3.45;;;1.40;;
66429;SDS011;53242;51.694;10.006;2024-02-04T12:34:26;3.88;;;1.40;;
66429;SDS011;53242;51.694;10.006;2024-02-04T12:36:56;4.88;;;1.63;;
66429;SDS011;53242;51.694;10.006;2024-02-04T12:39:19;2.88;;;1.45;;
66429;SDS011;53242;51.694;10.006;2024-02-04T12:41:42;4.43;;;1.40;;
66429;SDS011;53242;51.694;10.006;2024-02-04T12:44:04;3.67;;;1.75;;
66429;SDS011;53242;51.694;10.006;2024-02-04T12:46:27;2.60;;;1.33;;
66429;SDS011;53242;51.694;10.006;2024-02-04T12:48:53;4.45;;;1.60;;
66429;SDS011;53242;51.694;10.006;2024-02-04T12:51:29;4.90;;;1.85;;
66429;SDS011;53242;51.694;10.006;2024-02-04T12:54:06;3.67;;;1.75;;
66429;SDS011;53242;51.694;10.006;2024-02-04T12:56:45;2.97;;;1.55;;
66429;SDS011;53242;51.694;10.006;2024-02-04T12:59:25;3.92;;;1.52;;
66429;SDS011;53242;51.694;10.006;2024-02-04T13:02:15;6.35;;;1.70;;
66429;SDS011;53242;51.694;10.006;2024-02-04T13:04:37;10.07;;;2.50;;
66429;SDS011;53242;51.694;10.006;2024-02-04T13:07:00;7.63;;;2.63;;
66429;SDS011;53242;51.694;10.006;2024-02-04T13:09:22;1.73;;;1.08;;
66429;SDS011;53242;51.694;10.006;2024-02-04T13:11:45;5.93;;;2.67;;
66429;SDS011;53242;51.694;10.006;2024-02-04T13:14:07;3.75;;;1.52;;
66429;SDS011;53242;51.694;10.006;2024-02-04T13:16:30;4.03;;;1.73;;
66429;SDS011;53242;51.694;10.006;2024-02-04T13:18:52;5.25;;;1.95;;
66429;SDS011;53242;51.694;10.006;2024-02-04T13:21:15;6.40;;;2.08;;
66429;SDS011;53242;51.694;10.006;2024-02-04T13:23:41;7.90;;;2.08;;
66429;SDS011;53242;51.694;10.006;2024-02-04T13:26:04;4.68;;;2.33;;
66429;SDS011;53242;51.694;10.006;2024-02-04T13:28:27;5.95;;;2.30;;
66429;SDS011;53242;51.694;10.006;2024-02-04T13:30:50;4.88;;;2.15;;
66429;SDS011;53242;51.694;10.006;2024-02-04T13:33:12;4.38;;;1.48;;
66429;SDS011;53242;51.694;10.006;2024-02-04T13:35:35;3.58;;;1.67;;
66429;SDS011;53242;51.694;10.006;2024-02-04T13:37:58;5.40;;;1.70;;
66429;SDS011;53242;51.694;10.006;2024-02-04T13:40:20;3.90;;;1.73;;
66429;SDS011;53242;51.694;10.006;2024-02-04T13:42:44;5.15;;;1.65;;
66429;SDS011;53242;51.694;10.006;2024-02-04T13:45:06;6.40;;;2.05;;
66429;SDS011;53242;51.694;10.006;2024-02-04T13:47:30;5.22;;;2.00;;
66429;SDS011;53242;51.694;10.006;2024-02-04T13:49:53;5.75;;;1.92;;
66429;SDS011;53242;51.694;10.006;2024-02-04T13:52:16;4.72;;;1.60;;
66429;SDS011;53242;51.694;10.006;2024-02-04T13:54:38;4.32;;;1.40;;
66429;SDS011;53242;51.694;10.006;2024-02-04T13:57:00;3.65;;;1.52;;
66429;SDS011;53242;51.694;10.006;2024-02-04T13:59:23;2.40;;;1.02;;
66429;SDS011;53242;51.694;10.006;2024-02-04T14:01:45;2.40;;;1.20;;
66429;SDS011;53242;51.694;10.006;2024-02-04T14:04:08;5.78;;;1.73;;
66429;SDS011;53242;51.694;10.006;2024-02-04T14:06:30;4.22;;;1.60;;
66429;SDS011;53242;51.694;10.006;2024-02-04T14:08:52;2.95;;;1.20;;
66429;SDS011;53242;51.694;10.006;2024-02-04T14:11:15;4.97;;;1.33;;
66429;SDS011;53242;51.694;10.006;2024-02-04T14:13:37;2.92;;;1.13;;
66429;SDS011;53242;51.694;10.006;2024-02-04T14:16:00;8.45;;;1.70;;
66429;SDS011;53242;51.694;10.006;2024-02-04T14:18:22;4.13;;;1.77;;
66429;SDS011;53242;51.694;10.006;2024-02-04T14:20:44;4.45;;;2.03;;
66429;SDS011;53242;51.694;10.006;2024-02-04T14:23:07;4.18;;;1.83;;